Hugo, OK (74743)

2:37 PM CST on December 17, 2014 (GMT -0600)
Stamper Municipal | Change Station
CLOSE
Current Station
Airport
Location: Hugo,
Elevation: 571 ft
Nearby Weather Stations

Elev 571 ft 34.03 °N, 95.54 °W | Updated 22 minutes ago

Overcast
Overcast
39 °F
Feels Like 32 °F
N
13
Wind Variable Wind from East

Today
High -- | Low -- °F
--% Chance of Precip.
Yesterday
High -- | Low -- °F
Precip. -- in
7:21 AM 5:15 PM
Waning Crescent, 20% visible
Pressure 30.16 in
Visibility 10.0 miles
Clouds Mostly Cloudy 6000 ft
Overcast 7000 ft
Windchill 32 °F
Dew Point 34 °F
Humidity 81%
Rainfall 0.00 in
Snow Depth Not available.
UV 1 out of 12
Pollen 8.20 out of 12
Air Quality Not available.
Flu Activity Not available.
METAR KHHW 172015Z AUTO 09011KT 10SM BKN060 OVC070 04/01 A3016 RMK AO2 T00400010

More Conditions Fewer Conditions

Pressure 30.16 in
Visibility 10.0 miles
Clouds Mostly Cloudy 6000 ft
Overcast 7000 ft
Windchill 32 °F
Dew Point 34 °F
Humidity 81%
Rainfall 0.00 in
Snow Depth Not available.
UV 1 out of 12
Pollen 8.20 out of 12
Air Quality Not available.
Flu Activity Not available.
METAR KHHW 172015Z AUTO 09011KT 10SM BKN060 OVC070 04/01 A3016 RMK AO2 T00400010

More Conditions Fewer Conditions

Nowcast | as of 1:28 PM CST on December 17, 2014

At 1:28 PM...Doppler radars detected widespread precipitation occurring over eastern Oklahoma and western Arkansas. A mix of rain and sleet continues...though a gradual transition to all rain was ongoing as temperatures slowly warm. The precipitation was moving off to the northeast at around 40 mph. Through 3:00 PM...widespread precipitation will continue for the area. The gradual transition to all rain will be slow...however by mid afternoon widespread rain will be common...along with the potential for isolated thunderstorms. Average hourly rainfall of less than one tenth of an inch will remain common...with isolated locally higher amounts near one quarter of an inch possible. Some grassy areas may become covered with the heavier sleet...otherwise no accumulation is expected from this activity.

×

10-Day Weather Forecast

Almanac

Astronomy

Dec. 17, 2014 Rise Set
Actual Time
Civil Twilight
Nautical Twilight
Astronomical Twilight
Moon
Length of Visible Light
Length of Day
Tomorrow will be .
, % of the Moon is Illuminated

Today's Extremes

State Highs State Lows

Community

WunderPhotos

Upload Photos

1,778,803 photos uploaded!

WunderBlogs® & News

Nearby

Air Quality

  Air Quality AQ Index Pollutant
Not available.

Snow Depth

Station Depth Elevation

Earthquake Activity

City Distance Mag. Time & Date
Minimum magnitude displayed is 2.5.

Coastal Water Temperatures

Place Temperature

Nearby Weather Stations